createdAt,value
2018-07-15T00:02:27.263Z,16.10
2018-07-15T00:05:37.868Z,16.00
2018-07-15T00:08:48.606Z,16.00
2018-07-15T00:11:58.519Z,15.80
2018-07-15T00:15:08.564Z,15.70
2018-07-15T00:18:19.465Z,15.60
2018-07-15T00:21:29.866Z,15.60
2018-07-15T00:24:40.186Z,15.50
2018-07-15T00:27:50.650Z,15.40
2018-07-15T00:31:01.005Z,15.50
2018-07-15T00:34:11.072Z,15.60
2018-07-15T00:37:22.464Z,15.70
2018-07-15T00:40:32.580Z,15.70
2018-07-15T00:43:42.670Z,15.60
2018-07-15T00:46:52.535Z,15.70
2018-07-15T00:50:03.342Z,15.70
2018-07-15T00:53:13.784Z,15.70
2018-07-15T00:56:24.169Z,15.60
2018-07-15T00:59:34.026Z,15.60
2018-07-15T01:02:44.087Z,15.70
2018-07-15T01:05:53.940Z,15.60
2018-07-15T01:09:06.539Z,15.50
2018-07-15T01:12:16.507Z,15.60
2018-07-15T01:15:26.488Z,15.60
2018-07-15T01:18:36.739Z,15.50
2018-07-15T01:21:47.575Z,15.50
2018-07-15T01:24:57.693Z,15.40
2018-07-15T01:28:08.978Z,15.30
2018-07-15T01:31:19.583Z,15.20
2018-07-15T01:34:29.699Z,15.20
2018-07-15T01:37:40.949Z,15.20
2018-07-15T01:40:51.209Z,15.10
2018-07-15T01:44:01.114Z,15.10
2018-07-15T01:47:11.097Z,15.00
2018-07-15T01:50:21.834Z,15.10
2018-07-15T01:53:32.051Z,15.10
2018-07-15T01:56:42.515Z,15.10
2018-07-15T01:59:52.542Z,15.10
2018-07-15T02:03:02.465Z,15.00
2018-07-15T02:06:12.499Z,15.00
2018-07-15T02:09:22.815Z,15.00
2018-07-15T02:12:33.550Z,14.90
2018-07-15T02:15:43.644Z,14.90
2018-07-15T02:18:54.382Z,14.90
2018-07-15T02:22:04.599Z,14.90
2018-07-15T02:25:14.517Z,14.90
2018-07-15T02:28:24.418Z,14.90
2018-07-15T02:31:35.276Z,14.80
2018-07-15T02:34:45.394Z,14.70
2018-07-15T02:37:56.164Z,14.60
2018-07-15T02:41:06.532Z,14.60
2018-07-15T02:44:17.293Z,14.50
2018-07-15T02:47:27.169Z,14.50
2018-07-15T02:50:37.540Z,14.60
2018-07-15T02:53:47.406Z,14.60
2018-07-15T02:56:57.840Z,14.70
2018-07-15T03:00:09.371Z,14.60
2018-07-15T03:03:19.512Z,14.60
2018-07-15T03:09:39.857Z,14.60
2018-07-15T03:12:50.625Z,14.50
2018-07-15T03:16:00.485Z,14.60
2018-07-15T03:19:11.446Z,14.60
2018-07-15T03:22:22.250Z,14.60
2018-07-15T03:25:32.892Z,14.60
2018-07-15T03:28:43.656Z,14.50
2018-07-15T03:31:54.550Z,14.50
2018-07-15T03:35:04.604Z,14.50
2018-07-15T03:38:15.797Z,14.40
2018-07-15T03:41:26.221Z,14.40
2018-07-15T03:44:36.528Z,14.40
2018-07-15T03:50:56.891Z,14.50
2018-07-15T03:54:06.928Z,14.60
2018-07-15T03:57:17.740Z,14.60
2018-07-15T04:00:28.656Z,14.70
2018-07-15T04:03:38.596Z,14.70
2018-07-15T04:06:49.400Z,14.70
2018-07-15T04:09:59.474Z,14.70
2018-07-15T04:13:10.065Z,14.80
2018-07-15T04:19:29.890Z,14.80
2018-07-15T04:22:40.623Z,14.80
2018-07-15T04:25:51.530Z,14.70
2018-07-15T04:29:01.638Z,14.60
2018-07-15T04:32:11.585Z,14.70
2018-07-15T04:35:22.411Z,14.70
2018-07-15T04:38:33.275Z,14.70
2018-07-15T04:41:43.809Z,14.80
2018-07-15T04:44:54.557Z,14.80
2018-07-15T04:48:04.452Z,14.80
2018-07-15T04:51:14.831Z,14.80
2018-07-15T04:54:25.334Z,14.80
2018-07-15T04:57:35.192Z,14.80
2018-07-15T05:00:45.897Z,14.80
2018-07-15T05:03:56.046Z,14.80
2018-07-15T05:07:06.023Z,14.90
2018-07-15T05:10:16.685Z,14.80
2018-07-15T05:13:26.593Z,14.80
2018-07-15T05:16:37.835Z,14.70
2018-07-15T05:19:48.271Z,14.80
2018-07-15T05:22:58.976Z,14.70
2018-07-15T05:26:08.861Z,14.90
2018-07-15T05:29:19.647Z,15.10
2018-07-15T05:32:30.137Z,15.20
2018-07-15T05:35:40.192Z,15.30
2018-07-15T05:38:51.345Z,15.40
2018-07-15T05:42:01.915Z,15.60
2018-07-15T05:45:12.647Z,15.70
2018-07-15T05:48:23.408Z,15.80
2018-07-15T05:51:34.098Z,15.90
2018-07-15T05:54:44.816Z,16.00
2018-07-15T05:57:55.769Z,16.10
2018-07-15T06:01:06.155Z,16.20
2018-07-15T06:04:17.944Z,16.20
2018-07-15T06:07:28.860Z,16.30
2018-07-15T06:10:40.178Z,16.40
2018-07-15T06:13:50.570Z,16.50
2018-07-15T06:17:00.513Z,16.70
2018-07-15T06:20:11.635Z,16.80
2018-07-15T06:23:22.130Z,16.90
2018-07-15T06:26:32.197Z,16.90
2018-07-15T06:29:42.959Z,17.10
2018-07-15T06:32:53.715Z,17.20
2018-07-15T06:36:04.445Z,17.20
2018-07-15T06:39:15.639Z,17.40
2018-07-15T06:42:26.104Z,17.50
2018-07-15T06:45:36.939Z,17.70
2018-07-15T06:48:47.425Z,17.80
2018-07-15T06:51:58.298Z,17.80
2018-07-15T06:55:08.890Z,17.90
2018-07-15T06:58:19.743Z,18.00
2018-07-15T07:01:30.598Z,18.10
2018-07-15T07:04:41.808Z,18.30
2018-07-15T07:07:52.211Z,18.50
2018-07-15T07:11:03.038Z,18.80
2018-07-15T07:14:13.577Z,18.90
2018-07-15T07:17:24.073Z,19.10
2018-07-15T07:20:34.774Z,19.20
2018-07-15T07:23:45.741Z,19.40
2018-07-15T07:26:56.529Z,19.50
2018-07-15T07:30:07.149Z,19.80
2018-07-15T07:33:17.954Z,19.80
2018-07-15T07:36:28.666Z,20.00
2018-07-15T07:39:39.782Z,20.20
2018-07-15T07:42:50.443Z,20.30
2018-07-15T07:46:07.553Z,20.30
2018-07-15T07:49:18.103Z,20.40
2018-07-15T07:52:28.882Z,20.70
2018-07-15T07:55:39.685Z,20.70
2018-07-15T07:58:50.137Z,20.60
2018-07-15T08:02:01.068Z,20.80
2018-07-15T08:05:11.682Z,21.10
2018-07-15T08:08:22.304Z,21.30
2018-07-15T08:11:33.262Z,21.20
2018-07-15T08:14:44.166Z,21.30
2018-07-15T08:17:54.552Z,21.60
2018-07-15T08:21:05.241Z,21.50
2018-07-15T08:24:16.303Z,21.60
2018-07-15T08:27:26.838Z,21.90
2018-07-15T08:30:48.064Z,22.00
2018-07-15T08:33:58.283Z,22.10
2018-07-15T08:37:08.306Z,22.00
2018-07-15T08:40:19.191Z,22.00
2018-07-15T08:43:30.632Z,22.00
2018-07-15T08:46:41.786Z,22.20
2018-07-15T08:49:51.873Z,22.50
2018-07-15T08:53:04.153Z,22.60
2018-07-15T08:56:15.116Z,22.70
2018-07-15T08:59:25.498Z,22.80
2018-07-15T09:02:35.585Z,22.90
2018-07-15T09:05:45.933Z,23.10
2018-07-15T09:08:56.103Z,23.00
2018-07-15T09:12:06.052Z,23.10
2018-07-15T09:15:16.629Z,23.30
2018-07-15T09:18:26.893Z,23.50
2018-07-15T09:21:36.938Z,23.40
2018-07-15T09:24:46.720Z,23.50
2018-07-15T09:27:56.525Z,23.40
2018-07-15T09:34:16.129Z,23.70
2018-07-15T09:37:26.035Z,23.80
2018-07-15T09:40:36.416Z,23.80
2018-07-15T09:43:47.072Z,23.90
2018-07-15T09:46:57.354Z,24.10
2018-07-15T09:50:07.053Z,24.20
2018-07-15T09:53:16.864Z,24.30
2018-07-15T09:56:26.818Z,24.20
2018-07-15T09:59:36.540Z,24.10
2018-07-15T10:02:46.253Z,24.20
2018-07-15T10:05:56.030Z,24.30
2018-07-15T10:09:06.582Z,24.40
2018-07-15T10:12:16.721Z,24.50
2018-07-15T10:15:26.534Z,24.60
2018-07-15T10:18:36.302Z,24.70
2018-07-15T10:21:46.088Z,24.80
2018-07-15T10:24:55.938Z,24.90
2018-07-15T10:28:05.639Z,25.00
2018-07-15T10:31:15.412Z,25.40
2018-07-15T10:34:25.108Z,25.60
2018-07-15T10:37:35.061Z,25.50
2018-07-15T10:40:46.259Z,25.60
2018-07-15T10:43:57.993Z,25.60
2018-07-15T10:47:08.917Z,25.60
2018-07-15T10:50:19.699Z,25.90
2018-07-15T10:53:29.982Z,25.90
2018-07-15T10:56:40.709Z,25.80
2018-07-15T10:59:50.965Z,25.70
2018-07-15T11:03:15.834Z,25.90
2018-07-15T11:06:55.520Z,25.90
2018-07-15T11:10:06.259Z,25.80
2018-07-15T11:13:16.963Z,26.00
2018-07-15T11:16:27.003Z,26.30
2018-07-15T11:19:37.297Z,26.30
2018-07-15T11:22:47.515Z,26.10
2018-07-15T11:25:58.089Z,26.00
2018-07-15T11:29:19.302Z,25.80
2018-07-15T11:33:00.980Z,25.90
2018-07-15T11:36:12.279Z,26.00
2018-07-15T11:39:50.002Z,26.00
2018-07-15T11:43:00.868Z,26.00
2018-07-15T11:46:12.894Z,26.00
2018-07-15T11:49:23.015Z,26.00
2018-07-15T11:53:10.267Z,26.40
2018-07-15T11:56:20.985Z,26.50
2018-07-15T11:59:30.974Z,26.60
2018-07-15T12:02:46.922Z,26.40
2018-07-15T12:06:08.889Z,26.50
2018-07-15T12:09:19.851Z,26.50
2018-07-15T12:12:29.885Z,26.70
2018-07-15T12:15:40.009Z,26.80
2018-07-15T12:18:49.937Z,27.20
2018-07-15T12:21:59.636Z,27.00
2018-07-15T12:25:10.968Z,27.10
2018-07-15T12:28:20.663Z,27.10
2018-07-15T12:34:40.888Z,26.80
2018-07-15T12:37:50.706Z,26.80
2018-07-15T12:41:00.460Z,26.80
2018-07-15T12:44:10.919Z,27.10
2018-07-15T12:47:21.133Z,27.10
2018-07-15T12:50:30.976Z,26.90
2018-07-15T12:53:40.795Z,26.80
2018-07-15T12:56:51.598Z,27.30
2018-07-15T13:00:02.060Z,27.20
2018-07-15T13:03:12.482Z,27.10
2018-07-15T13:06:22.458Z,27.00
2018-07-15T13:09:33.039Z,27.40
2018-07-15T13:12:43.039Z,27.60
2018-07-15T13:15:53.023Z,28.10
2018-07-15T13:19:02.997Z,28.00
2018-07-15T13:22:12.719Z,28.00
2018-07-15T13:25:22.698Z,28.10
2018-07-15T13:28:33.142Z,28.00
2018-07-15T13:31:43.436Z,27.60
2018-07-15T13:34:53.414Z,27.80
2018-07-15T13:38:03.326Z,27.60
2018-07-15T13:41:14.066Z,27.50
2018-07-15T13:44:24.593Z,27.40
2018-07-15T13:47:35.250Z,27.40
2018-07-15T13:50:45.592Z,27.40
2018-07-15T13:53:55.417Z,27.40
2018-07-15T13:57:05.128Z,27.40
2018-07-15T14:00:15.577Z,27.30
2018-07-15T14:03:26.970Z,27.30
2018-07-15T14:06:36.859Z,27.40
2018-07-15T14:09:46.962Z,27.20
2018-07-15T14:12:56.609Z,27.20
2018-07-15T14:16:06.917Z,27.30
2018-07-15T14:19:16.829Z,27.30
2018-07-15T14:22:26.695Z,27.30
2018-07-15T14:25:36.449Z,27.60
2018-07-15T14:28:46.226Z,27.60
2018-07-15T14:31:56.123Z,27.90
2018-07-15T14:35:06.503Z,27.70
2018-07-15T14:38:16.228Z,27.60
2018-07-15T14:41:26.103Z,27.60
2018-07-15T14:44:37.658Z,27.60
2018-07-15T14:47:47.897Z,27.20
2018-07-15T14:50:57.979Z,27.40
2018-07-15T14:54:07.727Z,27.40
2018-07-15T14:57:17.629Z,27.50
2018-07-15T15:00:28.105Z,27.60
2018-07-15T15:03:38.042Z,27.60
2018-07-15T15:06:48.065Z,27.80
2018-07-15T15:09:58.036Z,27.80
2018-07-15T15:13:07.701Z,27.70
2018-07-15T15:16:17.738Z,27.80
2018-07-15T15:19:27.388Z,27.60
2018-07-15T15:22:37.424Z,27.10
2018-07-15T15:25:47.163Z,27.10
2018-07-15T15:28:57.019Z,27.10
2018-07-15T15:32:06.929Z,27.10
2018-07-15T15:35:16.980Z,27.30
2018-07-15T15:38:26.718Z,27.30
2018-07-15T15:41:36.827Z,27.10
2018-07-15T15:44:47.147Z,27.30
2018-07-15T15:47:57.293Z,27.30
2018-07-15T15:51:07.217Z,27.20
2018-07-15T15:54:17.169Z,27.20
2018-07-15T15:57:26.838Z,27.10
2018-07-15T16:00:37.142Z,26.90
2018-07-15T16:03:46.746Z,27.20
2018-07-15T16:06:56.556Z,27.10
2018-07-15T16:10:07.306Z,27.10
2018-07-15T16:13:17.321Z,27.20
2018-07-15T16:16:27.922Z,27.30
2018-07-15T16:19:37.704Z,27.00
2018-07-15T16:22:48.405Z,27.30
2018-07-15T16:25:58.401Z,27.20
2018-07-15T16:29:08.597Z,27.00
2018-07-15T16:32:19.075Z,27.00
2018-07-15T16:35:29.371Z,26.80
2018-07-15T16:38:39.739Z,26.70
2018-07-15T16:41:49.967Z,26.60
2018-07-15T16:44:59.877Z,26.70
2018-07-15T16:48:10.812Z,26.70
2018-07-15T16:51:20.580Z,26.60
2018-07-15T16:54:30.282Z,26.50
2018-07-15T16:57:40.972Z,26.30
2018-07-15T17:00:50.840Z,26.30
2018-07-15T17:04:00.586Z,26.20
2018-07-15T17:07:10.974Z,25.80
2018-07-15T17:10:21.157Z,25.80
2018-07-15T17:13:31.223Z,25.70
2018-07-15T17:16:41.135Z,25.70
2018-07-15T17:19:51.661Z,25.70
2018-07-15T17:23:01.434Z,25.60
2018-07-15T17:26:11.135Z,25.40
2018-07-15T17:29:20.877Z,25.40
2018-07-15T17:32:31.048Z,25.30
2018-07-15T17:35:41.547Z,25.40
2018-07-15T17:38:51.302Z,25.20
2018-07-15T17:42:01.896Z,25.00
2018-07-15T17:45:12.030Z,25.00
2018-07-15T17:48:22.262Z,24.90
2018-07-15T17:51:32.067Z,24.90
2018-07-15T17:54:42.054Z,24.80
2018-07-15T17:57:52.271Z,24.70
2018-07-15T18:01:02.402Z,24.60
2018-07-15T18:04:13.046Z,24.70
2018-07-15T18:07:23.037Z,24.60
2018-07-15T18:10:32.902Z,24.50
2018-07-15T18:13:42.726Z,24.20
2018-07-15T18:16:52.730Z,24.20
2018-07-15T18:20:02.606Z,24.20
2018-07-15T18:23:12.523Z,24.10
2018-07-15T18:26:22.342Z,24.10
2018-07-15T18:29:32.681Z,24.00
2018-07-15T18:32:43.032Z,24.00
2018-07-15T18:35:53.642Z,23.90
2018-07-15T18:39:03.831Z,23.80
2018-07-15T18:42:14.910Z,23.80
2018-07-15T18:45:25.981Z,23.80
2018-07-15T18:48:36.241Z,23.80
2018-07-15T18:51:46.096Z,23.90
2018-07-15T18:54:55.746Z,23.90
2018-07-15T18:58:05.964Z,23.80
2018-07-15T19:01:16.139Z,23.60
2018-07-15T19:04:26.808Z,23.70
2018-07-15T19:07:36.792Z,23.60
2018-07-15T19:10:46.542Z,23.60
2018-07-15T19:17:06.292Z,23.30
2018-07-15T19:20:16.347Z,23.30
2018-07-15T19:23:26.854Z,23.30
2018-07-15T19:26:36.594Z,23.20
2018-07-15T19:29:46.808Z,23.20
2018-07-15T19:32:56.469Z,23.10
2018-07-15T19:36:06.478Z,23.10
2018-07-15T19:39:16.291Z,23.10
2018-07-15T19:42:26.541Z,23.00
2018-07-15T19:45:36.689Z,23.00
2018-07-15T19:48:46.423Z,22.90
2018-07-15T19:51:56.080Z,22.80
2018-07-15T19:55:06.724Z,22.70
2018-07-15T19:58:17.458Z,22.70
2018-07-15T20:01:28.175Z,22.60
2018-07-15T20:04:38.259Z,22.60
2018-07-15T20:07:48.250Z,22.60
2018-07-15T20:10:58.360Z,22.50
2018-07-15T20:14:08.727Z,22.40
2018-07-15T20:17:18.453Z,22.50
2018-07-15T20:20:28.302Z,22.40
2018-07-15T20:23:37.901Z,22.40
2018-07-15T20:26:48.539Z,22.30
2018-07-15T20:29:59.070Z,22.20
2018-07-15T20:33:08.820Z,22.10
2018-07-15T20:36:18.766Z,22.10
2018-07-15T20:39:29.380Z,22.10
2018-07-15T20:42:39.537Z,22.10
2018-07-15T20:45:49.741Z,21.90
2018-07-15T20:49:00.273Z,21.60
2018-07-15T20:52:09.926Z,21.50
2018-07-15T20:55:19.823Z,21.50
2018-07-15T20:58:30.401Z,21.40
2018-07-15T21:01:40.313Z,21.40
2018-07-15T21:04:51.144Z,21.30
2018-07-15T21:08:01.864Z,21.20
2018-07-15T21:11:12.750Z,21.00
2018-07-15T21:14:23.210Z,21.00
2018-07-15T21:17:33.983Z,20.90
2018-07-15T21:20:45.018Z,20.70
2018-07-15T21:23:55.845Z,20.80
2018-07-15T21:27:06.554Z,20.70
2018-07-15T21:30:17.721Z,20.70
2018-07-15T21:33:28.142Z,20.60
2018-07-15T21:36:38.767Z,20.50
2018-07-15T21:39:49.338Z,20.50
2018-07-15T21:42:59.480Z,20.30
2018-07-15T21:46:09.621Z,20.30
2018-07-15T21:49:20.198Z,20.30
2018-07-15T21:52:30.965Z,20.10
2018-07-15T21:55:43.265Z,19.90
2018-07-15T21:58:53.530Z,19.80
2018-07-15T22:02:04.374Z,19.70
2018-07-15T22:05:14.677Z,19.60
2018-07-15T22:08:36.500Z,19.50
2018-07-15T22:11:46.910Z,19.40
2018-07-15T22:14:57.709Z,19.40
2018-07-15T22:18:08.661Z,19.30
2018-07-15T22:21:19.503Z,19.30
2018-07-15T22:24:29.926Z,19.20
2018-07-15T22:27:39.798Z,19.20
2018-07-15T22:30:49.759Z,19.10
2018-07-15T22:34:07.308Z,19.10
2018-07-15T22:37:17.562Z,19.00
2018-07-15T22:40:27.917Z,19.00
2018-07-15T22:43:38.401Z,18.90
2018-07-15T22:46:49.394Z,18.80
2018-07-15T22:49:59.739Z,18.80
2018-07-15T22:53:09.801Z,18.70
2018-07-15T22:56:20.259Z,18.70
2018-07-15T22:59:31.033Z,18.50
2018-07-15T23:02:41.353Z,18.50
2018-07-15T23:06:02.567Z,18.50
2018-07-15T23:09:12.817Z,18.40
2018-07-15T23:12:23.731Z,18.30
2018-07-15T23:15:34.519Z,18.20
2018-07-15T23:18:45.180Z,18.00
2018-07-15T23:21:57.117Z,17.90
2018-07-15T23:25:07.719Z,18.00
2018-07-15T23:28:18.679Z,18.00
2018-07-15T23:31:29.232Z,18.10
2018-07-15T23:34:39.169Z,18.00
2018-07-15T23:37:49.970Z,18.20
2018-07-15T23:41:00.670Z,17.90
2018-07-15T23:44:12.479Z,18.00
2018-07-15T23:47:22.797Z,17.90
2018-07-15T23:50:33.337Z,17.90
2018-07-15T23:53:43.259Z,17.90
2018-07-15T23:56:53.300Z,18.00
